Terminal Aerodrome Forecast
Issued by NWS

Home | Current Version | Previous Version | Graphics & Text | Print | Product List | Glossary On
Versions: 1 2 3 4 5 6 7 8 9 10 11 12 13 14 15 16 17 18
000
FTUS43 KICT 301120
TAFRSL
TAF
KRSL 301120Z 3012/3112 VRB04KT 1/4SM FG OVC001
     FM301500 14005KT 2SM BR OVC005
     FM301600 14011KT 5SM BR BKN015
     FM301800 15012KT P6SM SCT025=

USA.gov is the U.S. government's official web portal to all federal, state and local government web resources and services.